Time;durP1;ratioP1;P1;durP2;ratioP2;P2;SDS_P1;SDS_P2;PMS_P1;PMS_P2;Temp;Humidity;BMP_temperature;BMP_pressure;BME280_temperature;BME280_humidity;BME280_pressure;Samples;Min_cycle;Max_cycle;Signal;HPM_P1;HPM_P2
2023/05/29 00:01:03;;;;;;;5.53;0.52;;;;;;;;;;4834871;29;20056;-76
2023/05/29 00:03:35;;;;;;;5.05;1.08;;;;;;;;;;4834815;29;20046;-75
2023/05/29 00:06:07;;;;;;;3.65;0.60;;;;;;;;;;4834598;29;20053;-76
2023/05/29 00:08:40;;;;;;;2.80;0.50;;;;;;;;;;4834504;29;20058;-76
2023/05/29 00:11:13;;;;;;;1.00;0.40;;;;;;;;;;4847970;29;20073;-75
2023/05/29 00:13:44;;;;;;;3.22;0.60;;;;;;;;;;4834606;29;20078;-76
2023/05/29 00:16:17;;;;;;;1.75;0.50;;;;;;;;;;4835118;29;20548;-76
2023/05/29 00:18:51;;;;;;;7.07;0.70;;;;;;;;;;4834823;29;20608;-76
2023/05/29 00:21:25;;;;;;;0.40;0.20;;;;;;;;;;4834459;29;20045;-76
2023/05/29 00:23:55;;;;;;;1.85;0.47;;;;;;;;;;4835295;29;20503;-76
2023/05/29 00:26:30;;;;;;;2.95;0.60;;;;;;;;;;4834548;29;20050;-76
2023/05/29 00:29:02;;;;;;;1.75;0.47;;;;;;;;;;4834808;29;20050;-76
2023/05/29 00:31:35;;;;;;;1.15;0.30;;;;;;;;;;4834382;29;20429;-76
2023/05/29 00:34:06;;;;;;;2.85;0.45;;;;;;;;;;4848457;29;20057;-76
2023/05/29 00:36:39;;;;;;;3.97;0.80;;;;;;;;;;4835222;29;20057;-76
2023/05/29 00:39:12;;;;;;;8.25;0.90;;;;;;;;;;4847212;29;20058;-75
2023/05/29 00:41:42;;;;;;;15.77;1.65;;;;;;;;;;4834529;29;20054;-76
2023/05/29 00:44:13;;;;;;;4.82;1.00;;;;;;;;;;4834090;29;20054;-75
2023/05/29 00:46:46;;;;;;;3.60;0.70;;;;;;;;;;4834506;29;20058;-75
2023/05/29 00:49:21;;;;;;;8.77;1.48;;;;;;;;;;4834273;29;20064;-77
2023/05/29 00:51:55;;;;;;;2.83;0.68;;;;;;;;;;4834538;29;20050;-75
2023/05/29 00:54:29;;;;;;;2.53;0.70;;;;;;;;;;4848917;29;20057;-76
2023/05/29 00:57:04;;;;;;;4.13;0.68;;;;;;;;;;4848521;29;20054;-75
2023/05/29 00:59:41;;;;;;;4.50;0.60;;;;;;;;;;4834445;29;20072;-76
2023/05/29 01:02:16;;;;;;;3.25;0.90;;;;;;;;;;4834573;29;20057;-77
2023/05/29 01:04:46;;;;;;;2.47;0.70;;;;;;;;;;4835002;29;20490;-76
2023/05/29 01:07:17;;;;;;;3.88;0.52;;;;;;;;;;4846143;29;20538;-77
2023/05/29 01:09:52;;;;;;;4.55;0.68;;;;;;;;;;4846774;29;20053;-77
2023/05/29 01:12:43;;;;;;;5.05;0.70;;;;;;;;;;4847311;29;20092;-77
2023/05/29 01:15:23;;;;;;;9.77;0.80;;;;;;;;;;4850035;29;20521;-76
2023/05/29 01:18:09;;;;;;;2.13;0.57;;;;;;;;;;4835711;29;20042;-77
2023/05/29 01:20:56;;;;;;;5.78;1.00;;;;;;;;;;4849261;29;20062;-77
2023/05/29 01:23:46;;;;;;;3.40;0.70;;;;;;;;;;4850884;29;20054;-76
2023/05/29 01:26:51;;;;;;;6.22;0.68;;;;;;;;;;4851757;29;20057;-78
2023/05/29 01:29:27;;;;;;;3.10;1.08;;;;;;;;;;4847844;29;20061;-77
2023/05/29 01:32:02;;;;;;;2.65;0.77;;;;;;;;;;4851480;29;20054;-77
2023/05/29 01:34:35;;;;;;;3.42;0.90;;;;;;;;;;4837497;29;20050;-77
2023/05/29 01:37:05;;;;;;;4.53;0.77;;;;;;;;;;4851255;29;20066;-75
2023/05/29 01:39:36;;;;;;;2.42;0.70;;;;;;;;;;4851243;29;20057;-77
2023/05/29 01:42:07;;;;;;;1.58;0.60;;;;;;;;;;4837830;29;20447;-77
2023/05/29 01:44:38;;;;;;;4.35;0.82;;;;;;;;;;4837682;29;20498;-77
2023/05/29 01:47:10;;;;;;;4.93;0.80;;;;;;;;;;4837889;29;20058;-77
2023/05/29 01:49:41;;;;;;;4.38;0.80;;;;;;;;;;4837364;29;20421;-76
2023/05/29 01:52:11;;;;;;;4.40;0.70;;;;;;;;;;4836915;29;20061;-76
2023/05/29 01:54:42;;;;;;;5.90;0.68;;;;;;;;;;4850985;29;20061;-77
2023/05/29 01:57:13;;;;;;;2.22;0.70;;;;;;;;;;4839098;29;20061;-77
2023/05/29 01:59:42;;;;;;;3.83;0.63;;;;;;;;;;4851044;29;20433;-77
2023/05/29 02:02:14;;;;;;;2.15;0.60;;;;;;;;;;4851086;29;20084;-77
2023/05/29 02:04:44;;;;;;;2.72;0.77;;;;;;;;;;4835363;29;20054;-77
2023/05/29 02:07:15;;;;;;;1.80;0.50;;;;;;;;;;4850901;29;20054;-75
2023/05/29 02:09:44;;;;;;;;;;;;;;;;;;4850419;29;20054;-75
2023/05/29 02:12:15;;;;;;;2.22;0.73;;;;;;;;;;4850656;29;19967;-77
2023/05/29 02:14:46;;;;;;;2.20;0.45;;;;;;;;;;4838423;29;20060;-75
2023/05/29 02:17:19;;;;;;;3.38;0.50;;;;;;;;;;4851497;29;20061;-77
2023/05/29 02:19:50;;;;;;;2.05;0.50;;;;;;;;;;4837299;29;20506;-77
2023/05/29 02:22:20;;;;;;;2.92;0.60;;;;;;;;;;4850576;29;20054;-77
2023/05/29 02:24:51;;;;;;;2.53;0.80;;;;;;;;;;4850470;29;20057;-77
2023/05/29 02:27:23;;;;;;;2.75;0.60;;;;;;;;;;4850383;29;20061;-77
2023/05/29 02:29:54;;;;;;;3.78;0.70;;;;;;;;;;4836294;29;20506;-77
2023/05/29 02:32:38;;;;;;;6.18;0.40;;;;;;;;;;4851358;29;20547;-75
2023/05/29 02:35:09;;;;;;;2.25;0.57;;;;;;;;;;4837446;29;20522;-77
2023/05/29 02:37:40;;;;;;;2.53;0.50;;;;;;;;;;4836618;29;20532;-77
2023/05/29 02:40:11;;;;;;;4.28;0.93;;;;;;;;;;4836308;29;20060;-77
2023/05/29 02:42:41;;;;;;;2.83;0.73;;;;;;;;;;4836685;29;20061;-76
2023/05/29 02:45:12;;;;;;;3.15;0.40;;;;;;;;;;4850270;29;20068;-77
2023/05/29 02:47:56;;;;;;;0.65;0.60;;;;;;;;;;4849581;29;20057;-77
2023/05/29 02:50:28;;;;;;;2.58;0.50;;;;;;;;;;4836076;29;20046;-77
2023/05/29 02:52:58;;;;;;;4.43;0.57;;;;;;;;;;4836118;29;20045;-77
2023/05/29 02:55:28;;;;;;;4.05;0.80;;;;;;;;;;4849716;29;20061;-77
2023/05/29 02:58:01;;;;;;;2.05;0.43;;;;;;;;;;4836216;29;20053;-77
2023/05/29 03:00:31;;;;;;;1.20;0.32;;;;;;;;;;4836096;29;20433;-77
2023/05/29 03:03:01;;;;;;;;;;;;;;;;;;4836550;29;20050;-76
2023/05/29 03:05:33;;;;;;;0.90;0.30;;;;;;;;;;4849492;29;19932;-78
2023/05/29 03:08:17;;;;;;;2.95;0.43;;;;;;;;;;4849202;29;20065;-76
2023/05/29 03:10:51;;;;;;;1.05;0.50;;;;;;;;;;4836027;29;20057;-77
2023/05/29 03:13:22;;;;;;;1.08;0.30;;;;;;;;;;4835871;29;20549;-77
2023/05/29 03:15:59;;;;;;;6.18;0.50;;;;;;;;;;4849408;29;20190;-77
2023/05/29 03:18:30;;;;;;;4.10;0.68;;;;;;;;;;4849265;29;20069;-77
2023/05/29 03:21:07;;;;;;;4.40;0.68;;;;;;;;;;4833679;29;20065;-77
2023/05/29 03:23:38;;;;;;;2.95;0.38;;;;;;;;;;4849451;29;20057;-77
2023/05/29 03:26:10;;;;;;;3.67;0.70;;;;;;;;;;4835986;29;20050;-77
2023/05/29 03:28:46;;;;;;;3.90;0.38;;;;;;;;;;4848925;29;20058;-77
2023/05/29 03:31:17;;;;;;;4.95;0.80;;;;;;;;;;4849193;29;20057;-78
2023/05/29 03:33:50;;;;;;;1.25;0.40;;;;;;;;;;4849275;29;20058;-77
2023/05/29 03:36:28;;;;;;;6.63;0.40;;;;;;;;;;4848439;29;20415;-77
2023/05/29 03:39:00;;;;;;;3.10;0.32;;;;;;;;;;4849068;29;20402;-77
2023/05/29 03:41:31;;;;;;;3.78;0.47;;;;;;;;;;4849006;29;20056;-76
2023/05/29 03:44:03;;;;;;;2.47;0.28;;;;;;;;;;4849249;29;20061;-77
2023/05/29 03:46:33;;;;;;;5.00;0.50;;;;;;;;;;4849265;29;20064;-77
2023/05/29 03:49:07;;;;;;;0.55;0.25;;;;;;;;;;4849343;29;20061;-77
2023/05/29 03:51:38;;;;;;;1.40;0.55;;;;;;;;;;4848809;29;20050;-77
2023/05/29 03:54:10;;;;;;;1.13;0.20;;;;;;;;;;4849100;29;20061;-77
2023/05/29 03:56:40;;;;;;;2.72;0.40;;;;;;;;;;4849168;29;20049;-77
2023/05/29 03:59:13;;;;;;;1.00;0.30;;;;;;;;;;4849015;29;20057;-76
2023/05/29 04:01:44;;;;;;;3.80;0.35;;;;;;;;;;4834755;29;20050;-77
2023/05/29 04:04:15;;;;;;;2.42;0.50;;;;;;;;;;4848371;29;20062;-76
2023/05/29 04:06:47;;;;;;;2.03;0.22;;;;;;;;;;4834912;29;20053;-77
2023/05/29 04:09:20;;;;;;;3.33;0.38;;;;;;;;;;4848770;29;20057;-77
2023/05/29 04:11:51;;;;;;;2.47;0.55;;;;;;;;;;4848895;29;20551;-77
2023/05/29 04:14:22;;;;;;;2.55;0.43;;;;;;;;;;4848266;29;20061;-77
2023/05/29 04:16:52;;;;;;;4.57;0.50;;;;;;;;;;4835467;29;20077;-77
2023/05/29 04:19:22;;;;;;;;;;;;;;;;;;4849221;29;20061;-77
2023/05/29 04:21:54;;;;;;;5.13;0.65;;;;;;;;;;4848340;29;19928;-77
2023/05/29 04:24:25;;;;;;;1.50;0.50;;;;;;;;;;4848758;29;20058;-77
2023/05/29 04:27:02;;;;;;;0.52;0.38;;;;;;;;;;4834778;29;20514;-77
2023/05/29 04:29:34;;;;;;;1.90;0.30;;;;;;;;;;4847976;29;20062;-77
2023/05/29 04:32:08;;;;;;;2.72;0.52;;;;;;;;;;4833390;29;20066;-76
2023/05/29 04:34:39;;;;;;;2.42;0.60;;;;;;;;;;4833817;29;20502;-77
2023/05/29 04:37:09;;;;;;;0.77;0.43;;;;;;;;;;4848247;29;20068;-77
2023/05/29 04:39:45;;;;;;;2.38;0.35;;;;;;;;;;4847943;29;20054;-77
2023/05/29 04:42:22;;;;;;;3.55;0.57;;;;;;;;;;4848476;29;20054;-77
2023/05/29 04:44:54;;;;;;;0.55;0.25;;;;;;;;;;4832836;29;20495;-77
2023/05/29 04:47:24;;;;;;;1.95;0.50;;;;;;;;;;4850411;29;20054;-77
2023/05/29 04:49:54;;;;;;;;;;;;;;;;;;4838709;29;20046;-76
2023/05/29 04:52:25;;;;;;;5.43;0.70;;;;;;;;;;4852167;29;19940;-77
2023/05/29 04:54:56;;;;;;;2.03;0.38;;;;;;;;;;4851350;29;20430;-76
2023/05/29 04:57:28;;;;;;;1.95;0.28;;;;;;;;;;4851878;29;20065;-77
2023/05/29 04:59:58;;;;;;;2.72;0.50;;;;;;;;;;4851515;29;20058;-77
2023/05/29 05:02:28;;;;;;;2.13;0.17;;;;;;;;;;4851641;29;20065;-77
2023/05/29 05:04:59;;;;;;;4.03;0.20;;;;;;;;;;4851651;29;20065;-78
2023/05/29 05:07:29;;;;;;;3.80;0.50;;;;;;;;;;4852188;29;20057;-77
2023/05/29 05:10:00;;;;;;;2.35;0.45;;;;;;;;;;4851591;29;20054;-77
2023/05/29 05:12:33;;;;;;;2.47;0.47;;;;;;;;;;4851462;29;20065;-76
2023/05/29 05:15:04;;;;;;;3.22;0.40;;;;;;;;;;4851665;29;20061;-77
2023/05/29 05:17:36;;;;;;;3.92;0.50;;;;;;;;;;4851311;29;20062;-77
2023/05/29 05:20:08;;;;;;;1.63;0.30;;;;;;;;;;4851566;29;20057;-77
2023/05/29 05:22:39;;;;;;;0.60;0.28;;;;;;;;;;4851588;29;20418;-77
2023/05/29 05:25:09;;;;;;;;;;;;;;;;;;4852048;29;20065;-77
2023/05/29 05:27:39;;;;;;;5.78;0.95;;;;;;;;;;4837165;29;19928;-77
2023/05/29 05:30:11;;;;;;;2.03;0.63;;;;;;;;;;4835411;29;20066;-77
2023/05/29 05:32:42;;;;;;;1.85;0.60;;;;;;;;;;4851469;29;20057;-77
2023/05/29 05:35:14;;;;;;;3.85;0.57;;;;;;;;;;4851459;29;20676;-77
2023/05/29 05:37:46;;;;;;;4.95;0.43;;;;;;;;;;4850782;29;20046;-77
2023/05/29 05:40:16;;;;;;;1.98;0.38;;;;;;;;;;4851483;29;20065;-77
2023/05/29 05:42:56;;;;;;;1.55;0.20;;;;;;;;;;4851309;29;20057;-77
2023/05/29 05:45:46;;;;;;;2.40;0.43;;;;;;;;;;4837695;29;20078;-77
2023/05/29 05:48:18;;;;;;;1.95;0.38;;;;;;;;;;4850785;29;20065;-77
2023/05/29 05:50:50;;;;;;;0.98;0.30;;;;;;;;;;4850933;29;20058;-77
2023/05/29 05:53:21;;;;;;;3.53;0.38;;;;;;;;;;4835908;29;20754;-77
2023/05/29 05:55:51;;;;;;;1.25;0.30;;;;;;;;;;4851063;29;20053;-77
2023/05/29 05:58:25;;;;;;;6.20;0.50;;;;;;;;;;4834982;29;20050;-77
2023/05/29 06:00:58;;;;;;;0.30;0.30;;;;;;;;;;4850656;29;20081;-76
2023/05/29 06:03:32;;;;;;;5.57;0.50;;;;;;;;;;4850291;29;20097;-77
2023/05/29 06:06:08;;;;;;;1.35;0.40;;;;;;;;;;4850794;29;20418;-77
2023/05/29 06:08:42;;;;;;;1.40;0.30;;;;;;;;;;4850706;29;20054;-76
2023/05/29 06:11:13;;;;;;;3.22;0.47;;;;;;;;;;4850570;29;20769;-76
2023/05/29 06:13:46;;;;;;;0.43;0.28;;;;;;;;;;4851216;29;20065;-76
2023/05/29 06:16:23;;;;;;;0.70;0.32;;;;;;;;;;4850606;29;20426;-77
2023/05/29 06:18:54;;;;;;;0.70;0.20;;;;;;;;;;4838209;29;20156;-77
2023/05/29 06:21:25;;;;;;;0.17;0.08;;;;;;;;;;4850593;29;20054;-77
2023/05/29 06:23:57;;;;;;;0.70;0.22;;;;;;;;;;4850556;29;20064;-77
2023/05/29 06:26:28;;;;;;;0.40;0.38;;;;;;;;;;4850222;29;20510;-76
2023/05/29 06:28:59;;;;;;;3.83;0.20;;;;;;;;;;4850475;29;20097;-76
2023/05/29 06:31:30;;;;;;;5.50;0.60;;;;;;;;;;4850208;29;20074;-77
2023/05/29 06:34:01;;;;;;;2.05;0.20;;;;;;;;;;4836358;29;20053;-77
2023/05/29 06:36:32;;;;;;;0.28;0.10;;;;;;;;;;4850191;29;20053;-76
2023/05/29 06:39:05;;;;;;;7.05;1.33;;;;;;;;;;4850147;29;20066;-77
2023/05/29 06:41:35;;;;;;;2.80;0.25;;;;;;;;;;4837023;29;20062;-77
2023/05/29 06:44:07;;;;;;;7.32;0.20;;;;;;;;;;4849931;29;20058;-76
2023/05/29 06:46:40;;;;;;;3.47;0.40;;;;;;;;;;4834811;29;20065;-77
2023/05/29 06:49:11;;;;;;;4.20;0.57;;;;;;;;;;4850436;29;20057;-77
2023/05/29 06:51:43;;;;;;;3.00;0.40;;;;;;;;;;4835855;29;21267;-77
2023/05/29 06:54:24;;;;;;;2.92;0.40;;;;;;;;;;4849790;29;20057;-77
2023/05/29 06:56:55;;;;;;;3.20;0.52;;;;;;;;;;4835799;29;20506;-77
2023/05/29 06:59:40;;;;;;;0.55;0.15;;;;;;;;;;4850028;29;20058;-77
2023/05/29 07:02:11;;;;;;;2.85;0.30;;;;;;;;;;4834453;29;20064;-76
2023/05/29 07:04:43;;;;;;;0.65;0.20;;;;;;;;;;4849909;29;20065;-77
2023/05/29 07:07:14;;;;;;;3.95;0.40;;;;;;;;;;4849584;29;20058;-76
2023/05/29 07:09:45;;;;;;;3.92;0.38;;;;;;;;;;4848745;29;21220;-77
2023/05/29 07:12:16;;;;;;;3.13;0.30;;;;;;;;;;4849089;29;20427;-76
2023/05/29 07:14:52;;;;;;;0.40;0.20;;;;;;;;;;4849839;29;20058;-76
2023/05/29 07:17:22;;;;;;;4.35;0.60;;;;;;;;;;4849366;29;20073;-76
2023/05/29 07:20:07;;;;;;;2.28;0.30;;;;;;;;;;4849411;29;20072;-76
2023/05/29 07:22:40;;;;;;;1.02;0.40;;;;;;;;;;4849559;29;20058;-77
2023/05/29 07:25:10;;;;;;;0.20;0.20;;;;;;;;;;4849400;29;20065;-77
2023/05/29 07:27:41;;;;;;;2.67;0.50;;;;;;;;;;4833518;29;20053;-77
2023/05/29 07:30:11;;;;;;;;;;;;;;;;;;4835786;29;20108;-77
2023/05/29 07:32:46;;;;;;;1.10;0.40;;;;;;;;;;4849388;29;19945;-76
2023/05/29 07:35:17;;;;;;;1.27;0.28;;;;;;;;;;4834233;29;20675;-76
2023/05/29 07:37:51;;;;;;;1.60;0.32;;;;;;;;;;4849263;29;20061;-76
2023/05/29 07:40:23;;;;;;;2.10;0.40;;;;;;;;;;4833833;29;20061;-77
2023/05/29 07:43:11;;;;;;;1.75;0.25;;;;;;;;;;4835172;29;20604;-77
2023/05/29 07:45:53;;;;;;;1.67;0.38;;;;;;;;;;4849373;29;20851;-76
2023/05/29 07:48:24;;;;;;;2.03;0.30;;;;;;;;;;4848894;29;20065;-77
2023/05/29 07:50:56;;;;;;;2.13;0.28;;;;;;;;;;4849188;29;20057;-76
2023/05/29 07:53:30;;;;;;;0.82;0.40;;;;;;;;;;4848682;29;20058;-76
2023/05/29 07:56:14;;;;;;;0.38;0.30;;;;;;;;;;4847300;29;20073;-76
2023/05/29 07:58:44;;;;;;;3.88;0.60;;;;;;;;;;4848657;29;20081;-76
2023/05/29 08:01:17;;;;;;;4.38;0.50;;;;;;;;;;4848406;29;20072;-76
2023/05/29 08:03:49;;;;;;;0.40;0.40;;;;;;;;;;4833114;29;20526;-76
2023/05/29 08:06:34;;;;;;;2.25;0.38;;;;;;;;;;4849175;29;20058;-76
2023/05/29 08:09:05;;;;;;;2.25;0.70;;;;;;;;;;4848924;29;20060;-76
2023/05/29 08:11:35;;;;;;;1.92;0.57;;;;;;;;;;4848711;29;20061;-76
2023/05/29 08:14:06;;;;;;;1.08;0.40;;;;;;;;;;4834812;29;20076;-76
2023/05/29 08:16:38;;;;;;;2.20;0.25;;;;;;;;;;4847996;29;20065;-76
2023/05/29 08:19:09;;;;;;;2.22;0.20;;;;;;;;;;4834786;29;20523;-76
2023/05/29 08:21:42;;;;;;;2.08;0.40;;;;;;;;;;4834646;29;20074;-76
2023/05/29 08:24:23;;;;;;;1.27;0.40;;;;;;;;;;4834987;29;20049;-76
2023/05/29 08:26:53;;;;;;;1.60;0.65;;;;;;;;;;4836518;29;20537;-76
2023/05/29 08:29:23;;;;;;;0.77;0.15;;;;;;;;;;4834124;29;20573;-76
2023/05/29 08:31:54;;;;;;;4.85;0.93;;;;;;;;;;4834699;29;20061;-76
2023/05/29 08:34:25;;;;;;;3.05;0.50;;;;;;;;;;4834284;29;20054;-77
2023/05/29 08:36:55;;;;;;;2.72;0.22;;;;;;;;;;4834829;29;20049;-76
2023/05/29 08:39:26;;;;;;;0.20;0.20;;;;;;;;;;4834586;29;20065;-76
2023/05/29 08:42:02;;;;;;;1.92;0.50;;;;;;;;;;4834745;29;20061;-76
2023/05/29 08:44:33;;;;;;;0.55;0.32;;;;;;;;;;4834718;29;20042;-76
2023/05/29 08:47:10;;;;;;;2.30;0.50;;;;;;;;;;4834739;29;20061;-76
2023/05/29 08:49:44;;;;;;;2.20;0.38;;;;;;;;;;4834466;29;20085;-76
2023/05/29 08:52:19;;;;;;;0.77;0.43;;;;;;;;;;4834365;29;20046;-77
2023/05/29 08:54:51;;;;;;;0.85;0.40;;;;;;;;;;4834744;29;20050;-76
2023/05/29 08:57:23;;;;;;;1.90;0.38;;;;;;;;;;4834498;29;20521;-76
2023/05/29 08:59:55;;;;;;;3.63;0.70;;;;;;;;;;4834901;29;20053;-76
2023/05/29 09:02:27;;;;;;;2.03;0.30;;;;;;;;;;4833866;29;20703;-76
2023/05/29 09:04:57;;;;;;;3.05;0.40;;;;;;;;;;4834765;29;20058;-76
2023/05/29 09:07:28;;;;;;;3.25;0.80;;;;;;;;;;4834268;29;20053;-78
2023/05/29 09:10:02;;;;;;;0.50;0.50;;;;;;;;;;4834076;29;20061;-76
2023/05/29 09:12:34;;;;;;;1.65;0.40;;;;;;;;;;4847695;29;20526;-76
2023/05/29 09:15:17;;;;;;;1.73;0.17;;;;;;;;;;4834464;29;20413;-76
2023/05/29 09:17:53;;;;;;;2.67;0.73;;;;;;;;;;4833982;29;20080;-76
2023/05/29 09:20:25;;;;;;;;;;;;;;;;;;4834540;29;20050;-76
2023/05/29 09:23:00;;;;;;;2.40;0.50;;;;;;;;;;4833715;29;20380;-77
2023/05/29 09:25:35;;;;;;;0.40;0.40;;;;;;;;;;4834195;29;20060;-76
2023/05/29 09:28:08;;;;;;;2.75;0.50;;;;;;;;;;4834358;29;20054;-76
2023/05/29 09:30:40;;;;;;;2.33;0.60;;;;;;;;;;4833894;29;20066;-76
2023/05/29 09:33:14;;;;;;;1.23;0.50;;;;;;;;;;4834393;29;20049;-76
2023/05/29 09:35:48;;;;;;;0.60;0.40;;;;;;;;;;4837759;29;20050;-76
2023/05/29 09:38:20;;;;;;;3.13;0.70;;;;;;;;;;4837473;29;20054;-76
2023/05/29 09:41:12;;;;;;;1.67;0.65;;;;;;;;;;4837304;29;20058;-76
2023/05/29 09:43:46;;;;;;;1.30;0.52;;;;;;;;;;4836945;29;20053;-75
2023/05/29 09:46:17;;;;;;;3.72;0.73;;;;;;;;;;4850950;29;20061;-76
2023/05/29 09:48:49;;;;;;;4.32;0.55;;;;;;;;;;4837548;29;20423;-76
2023/05/29 09:51:23;;;;;;;1.98;0.55;;;;;;;;;;4836889;29;20073;-75
2023/05/29 09:53:56;;;;;;;2.30;0.73;;;;;;;;;;4837233;29;20053;-75
2023/05/29 09:56:29;;;;;;;2.50;0.60;;;;;;;;;;4836316;29;20057;-77
2023/05/29 09:59:00;;;;;;;1.60;0.60;;;;;;;;;;4837167;29;20056;-78
2023/05/29 10:01:30;;;;;;;2.53;0.60;;;;;;;;;;4851012;29;20064;-74
2023/05/29 10:04:02;;;;;;;4.18;0.60;;;;;;;;;;4837001;29;20054;-75
2023/05/29 10:06:36;;;;;;;2.90;0.80;;;;;;;;;;4837279;29;20493;-75
2023/05/29 10:09:11;;;;;;;4.40;0.70;;;;;;;;;;4836538;29;20061;-77
2023/05/29 10:11:45;;;;;;;2.70;0.90;;;;;;;;;;4836793;29;20681;-75
2023/05/29 10:14:22;;;;;;;8.23;1.40;;;;;;;;;;4836705;29;20058;-74
2023/05/29 10:16:57;;;;;;;3.92;0.90;;;;;;;;;;4836708;29;20076;-75
2023/05/29 10:19:32;;;;;;;1.52;0.80;;;;;;;;;;4835141;29;20065;-75
2023/05/29 10:22:04;;;;;;;13.82;1.80;;;;;;;;;;4837537;29;20048;-74
2023/05/29 10:24:38;;;;;;;6.97;2.30;;;;;;;;;;4849771;29;20053;-75
2023/05/29 10:27:09;;;;;;;4.95;1.13;;;;;;;;;;4834924;29;20061;-75
2023/05/29 10:29:53;;;;;;;4.18;1.20;;;;;;;;;;4835806;29;20050;-74
2023/05/29 10:32:44;;;;;;;3.30;0.88;;;;;;;;;;4836897;29;20081;-74
2023/05/29 10:35:28;;;;;;;6.13;1.10;;;;;;;;;;4836384;29;20057;-74
2023/05/29 10:38:11;;;;;;;2.53;1.27;;;;;;;;;;4836382;29;20053;-74
2023/05/29 10:40:43;;;;;;;2.45;1.20;;;;;;;;;;4846287;29;20054;-74
2023/05/29 10:43:36;;;;;;;4.50;0.77;;;;;;;;;;4818069;29;20063;-74
2023/05/29 10:46:06;;;;;;;2.85;0.98;;;;;;;;;;4817918;29;20050;-75
2023/05/29 10:48:40;;;;;;;4.43;1.10;;;;;;;;;;4817696;29;20054;-74
2023/05/29 10:51:31;;;;;;;4.63;1.10;;;;;;;;;;4818212;29;20062;-75
2023/05/29 10:54:01;;;;;;;5.05;0.80;;;;;;;;;;4818190;29;20431;-76
2023/05/29 10:56:31;;;;;;;;;;;;;;;;;;4818478;29;20042;-75
2023/05/29 10:59:02;;;;;;;2.83;1.20;;;;;;;;;;4817515;29;19929;-74
2023/05/29 11:01:32;;;;;;;1.88;0.93;;;;;;;;;;4817359;29;20059;-74
2023/05/29 11:04:16;;;;;;;6.30;0.90;;;;;;;;;;4817987;29;20058;-76
2023/05/29 11:06:47;;;;;;;4.47;0.52;;;;;;;;;;4818126;29;20062;-75
2023/05/29 11:09:31;;;;;;;4.00;0.80;;;;;;;;;;4817703;29;20769;-75
2023/05/29 11:12:35;;;;;;;3.40;1.00;;;;;;;;;;4817875;29;20050;-75
2023/05/29 11:15:09;;;;;;;4.07;1.05;;;;;;;;;;4817273;29;20077;-75
2023/05/29 11:17:40;;;;;;;4.38;1.05;;;;;;;;;;4830891;29;20070;-75
2023/05/29 11:20:52;;;;;;;6.95;0.90;;;;;;;;;;4817783;29;20398;-75
2023/05/29 11:23:32;;;;;;;1.50;0.77;;;;;;;;;;4814535;29;20075;-74
2023/05/29 11:26:05;;;;;;;3.08;0.82;;;;;;;;;;4814840;29;20088;-75
2023/05/29 11:28:37;;;;;;;0.93;0.60;;;;;;;;;;4816384;29;20073;-77
2023/05/29 11:31:11;;;;;;;7.95;1.40;;;;;;;;;;4817110;29;20069;-75
2023/05/29 11:33:51;;;;;;;13.23;1.67;;;;;;;;;;4816104;29;20076;-77
2023/05/29 11:36:22;;;;;;;6.75;1.08;;;;;;;;;;4829528;29;20058;-75
2023/05/29 11:38:52;;;;;;;3.67;0.90;;;;;;;;;;4816380;29;20459;-77
2023/05/29 11:41:25;;;;;;;3.22;0.75;;;;;;;;;;4816648;29;20050;-76
2023/05/29 11:43:59;;;;;;;1.00;0.70;;;;;;;;;;4817079;29;20055;-75
2023/05/29 11:46:34;;;;;;;2.58;0.90;;;;;;;;;;4816357;29;20549;-75
2023/05/29 11:49:07;;;;;;;7.05;1.10;;;;;;;;;;4817313;29;20054;-75
2023/05/29 11:51:43;;;;;;;3.00;0.90;;;;;;;;;;4817083;29;20050;-75
2023/05/29 11:54:13;;;;;;;1.83;0.70;;;;;;;;;;4817444;29;20051;-76
2023/05/29 11:56:43;;;;;;;3.58;0.93;;;;;;;;;;4816522;29;20050;-74
2023/05/29 11:59:15;;;;;;;4.40;1.00;;;;;;;;;;4817397;29;20054;-75
2023/05/29 12:01:46;;;;;;;3.10;1.02;;;;;;;;;;4816764;29;20069;-75
2023/05/29 12:04:17;;;;;;;3.03;0.90;;;;;;;;;;4816858;29;20537;-75
2023/05/29 12:06:47;;;;;;;5.65;0.90;;;;;;;;;;4816809;29;20058;-74
2023/05/29 12:09:28;;;;;;;7.57;2.50;;;;;;;;;;4816587;29;20050;-75
2023/05/29 12:12:05;;;;;;;3.95;0.88;;;;;;;;;;4817528;29;20065;-74
2023/05/29 12:14:37;;;;;;;1.65;0.77;;;;;;;;;;4817140;29;20054;-74
2023/05/29 12:17:08;;;;;;;5.15;1.10;;;;;;;;;;4817007;29;20061;-74
2023/05/29 12:19:39;;;;;;;2.13;1.10;;;;;;;;;;4829784;29;20544;-74
2023/05/29 12:22:10;;;;;;;4.18;1.00;;;;;;;;;;4816689;29;20062;-74
2023/05/29 12:24:42;;;;;;;7.03;2.22;;;;;;;;;;4816948;29;20061;-76
2023/05/29 12:27:12;;;;;;;7.72;2.10;;;;;;;;;;4816863;29;20417;-74
2023/05/29 12:29:42;;;;;;;4.22;1.58;;;;;;;;;;4816520;29;20050;-74
2023/05/29 12:32:12;;;;;;;3.70;1.25;;;;;;;;;;4816604;29;20527;-74
2023/05/29 12:34:50;;;;;;;5.07;3.13;;;;;;;;;;4829729;29;20055;-75
2023/05/29 12:37:23;;;;;;;4.53;1.33;;;;;;;;;;4816404;29;20050;-76
2023/05/29 12:40:27;;;;;;;4.38;1.35;;;;;;;;;;4816518;29;20043;-76
2023/05/29 12:43:02;;;;;;;4.85;2.30;;;;;;;;;;4814907;29;20073;-74
2023/05/29 12:45:34;;;;;;;4.35;1.52;;;;;;;;;;4816758;29;20058;-75
2023/05/29 12:48:06;;;;;;;1.65;1.00;;;;;;;;;;4830604;29;20507;-75
2023/05/29 12:50:38;;;;;;;5.00;1.15;;;;;;;;;;4816008;29;20050;-74
2023/05/29 12:53:13;;;;;;;7.95;1.83;;;;;;;;;;4816080;29;20058;-75
2023/05/29 12:55:47;;;;;;;2.72;1.10;;;;;;;;;;4816191;29;20495;-74
2023/05/29 12:58:17;;;;;;;2.67;1.20;;;;;;;;;;4830215;29;20554;-78
2023/05/29 13:00:55;;;;;;;3.63;1.00;;;;;;;;;;4816450;29;20051;-75
2023/05/29 13:03:25;;;;;;;3.38;1.10;;;;;;;;;;4816475;29;20054;-75
2023/05/29 13:05:57;;;;;;;1.40;0.80;;;;;;;;;;4815854;29;20058;-76
2023/05/29 13:08:27;;;;;;;3.80;1.17;;;;;;;;;;4817965;29;20042;-75
2023/05/29 13:10:58;;;;;;;3.45;1.08;;;;;;;;;;4832916;29;20058;-77
2023/05/29 13:13:29;;;;;;;2.20;0.80;;;;;;;;;;4833363;29;20426;-76
2023/05/29 13:16:00;;;;;;;4.25;1.02;;;;;;;;;;4820090;29;20070;-76
2023/05/29 13:18:31;;;;;;;2.42;0.95;;;;;;;;;;4819769;29;20058;-76
2023/05/29 13:21:02;;;;;;;2.35;0.90;;;;;;;;;;4819122;29;20053;-76
2023/05/29 13:23:33;;;;;;;2.65;0.77;;;;;;;;;;4819097;29;20069;-75
2023/05/29 13:26:07;;;;;;;2.08;0.70;;;;;;;;;;4832897;29;20070;-75
2023/05/29 13:28:38;;;;;;;2.97;1.10;;;;;;;;;;4819324;29;20422;-75
2023/05/29 13:31:09;;;;;;;2.08;0.85;;;;;;;;;;4819034;29;20073;-75
2023/05/29 13:33:41;;;;;;;5.05;1.10;;;;;;;;;;4818855;29;20058;-75
2023/05/29 13:36:13;;;;;;;7.40;1.27;;;;;;;;;;4819555;29;20050;-74
2023/05/29 13:38:46;;;;;;;3.70;1.85;;;;;;;;;;4818842;29;20061;-76
2023/05/29 13:41:17;;;;;;;2.75;1.00;;;;;;;;;;4819707;29;20499;-75
2023/05/29 13:43:47;;;;;;;2.65;0.85;;;;;;;;;;4818675;29;20050;-75
2023/05/29 13:46:19;;;;;;;2.17;0.70;;;;;;;;;;4818999;29;20069;-76
2023/05/29 13:48:50;;;;;;;0.88;0.60;;;;;;;;;;4819151;29;20062;-75
2023/05/29 13:51:22;;;;;;;1.67;0.70;;;;;;;;;;4819347;29;20414;-74
2023/05/29 13:53:53;;;;;;;2.17;1.05;;;;;;;;;;4818243;29;20051;-75
2023/05/29 13:56:26;;;;;;;2.92;1.05;;;;;;;;;;4817241;29;20050;-75
2023/05/29 13:59:04;;;;;;;1.60;0.40;;;;;;;;;;4818960;29;20050;-75
2023/05/29 14:01:35;;;;;;;1.33;0.50;;;;;;;;;;4818612;29;20510;-76
2023/05/29 14:04:06;;;;;;;1.30;0.35;;;;;;;;;;4818757;29;20515;-75
2023/05/29 14:06:38;;;;;;;4.95;0.50;;;;;;;;;;4818927;29;20050;-75
2023/05/29 14:09:09;;;;;;;2.17;0.43;;;;;;;;;;4819011;29;20066;-75
2023/05/29 14:11:41;;;;;;;3.53;0.82;;;;;;;;;;4818493;29;20065;-76
2023/05/29 14:14:11;;;;;;;4.10;0.60;;;;;;;;;;4818512;29;20511;-75
2023/05/29 14:16:44;;;;;;;5.47;0.90;;;;;;;;;;4818059;29;20054;-74
2023/05/29 14:19:15;;;;;;;2.00;0.63;;;;;;;;;;4818308;29;20054;-74
2023/05/29 14:21:47;;;;;;;1.33;0.50;;;;;;;;;;4818871;29;20054;-76
2023/05/29 14:24:18;;;;;;;0.90;0.40;;;;;;;;;;4818863;29;20515;-76
2023/05/29 14:26:50;;;;;;;1.65;0.65;;;;;;;;;;4818658;29;20054;-76
2023/05/29 14:29:21;;;;;;;2.67;0.60;;;;;;;;;;4818105;29;20418;-76
2023/05/29 14:31:51;;;;;;;1.38;0.40;;;;;;;;;;4817720;29;20065;-79
2023/05/29 14:34:22;;;;;;;1.92;0.70;;;;;;;;;;4818317;29;20065;-77
2023/05/29 14:36:54;;;;;;;1.88;0.98;;;;;;;;;;4818332;29;20054;-75
2023/05/29 14:39:25;;;;;;;3.50;0.80;;;;;;;;;;4831649;29;20047;-76
2023/05/29 14:41:56;;;;;;;2.83;0.80;;;;;;;;;;4818182;29;20042;-78
2023/05/29 14:44:28;;;;;;;1.67;0.60;;;;;;;;;;4818125;29;20050;-77
2023/05/29 14:46:59;;;;;;;2.13;0.70;;;;;;;;;;4818175;29;20042;-76
2023/05/29 14:49:31;;;;;;;1.95;0.95;;;;;;;;;;4818417;29;20097;-76
2023/05/29 14:52:09;;;;;;;2.33;0.70;;;;;;;;;;4832087;29;20438;-79
2023/05/29 14:54:40;;;;;;;1.85;0.77;;;;;;;;;;4818417;29;20054;-77
2023/05/29 14:57:11;;;;;;;1.10;0.50;;;;;;;;;;4818363;29;20062;-75
2023/05/29 14:59:42;;;;;;;2.88;0.80;;;;;;;;;;4818279;29;20061;-76
2023/05/29 15:02:12;;;;;;;9.48;0.95;;;;;;;;;;4817976;29;20050;-76
2023/05/29 15:04:43;;;;;;;3.83;0.63;;;;;;;;;;4817557;29;20518;-78
2023/05/29 15:07:16;;;;;;;2.38;0.50;;;;;;;;;;4817768;29;20521;-75
2023/05/29 15:09:47;;;;;;;1.17;0.73;;;;;;;;;;4818391;29;20054;-75
2023/05/29 15:12:18;;;;;;;0.77;0.63;;;;;;;;;;4817993;29;20415;-77
2023/05/29 15:14:48;;;;;;;1.25;0.50;;;;;;;;;;4817820;29;20525;-75
2023/05/29 15:17:21;;;;;;;1.17;0.60;;;;;;;;;;4816905;29;20050;-74
2023/05/29 15:19:52;;;;;;;0.40;0.40;;;;;;;;;;4818136;29;20066;-76
2023/05/29 15:22:23;;;;;;;1.73;0.50;;;;;;;;;;4817811;29;20057;-75